sensor_id;sensor_type;location;lat;lon;timestamp;P1;durP1;ratioP1;P2;durP2;ratioP2
52342;SDS011;38277;51.972;4.624;2022-12-18T00:00:14;87.3;;;36.0;;
52342;SDS011;38277;51.972;4.624;2022-12-18T00:09:27;88.3;;;35.9;;
52342;SDS011;38277;51.972;4.624;2022-12-18T00:14:42;82.1;;;38.1;;
52342;SDS011;38277;51.972;4.624;2022-12-18T00:18:16;89.4;;;36.7;;
52342;SDS011;38277;51.972;4.624;2022-12-18T00:27:06;81.2;;;33.2;;
52342;SDS011;38277;51.972;4.624;2022-12-18T00:32:21;78.7;;;35.1;;
52342;SDS011;38277;51.972;4.624;2022-12-18T00:36:11;78.1;;;34.1;;
52342;SDS011;38277;51.972;4.624;2022-12-18T00:45:08;66.9;;;32.5;;
52342;SDS011;38277;51.972;4.624;2022-12-18T00:50:33;75.8;;;31.3;;
52342;SDS011;38277;51.972;4.624;2022-12-18T00:54:23;74.5;;;35.7;;
52342;SDS011;38277;51.972;4.624;2022-12-18T01:03:22;72.8;;;31.7;;
52342;SDS011;38277;51.972;4.624;2022-12-18T01:08:44;77.1;;;31.5;;
52342;SDS011;38277;51.972;4.624;2022-12-18T01:12:15;73.8;;;32.1;;
52342;SDS011;38277;51.972;4.624;2022-12-18T01:21:22;75.1;;;34.0;;
52342;SDS011;38277;51.972;4.624;2022-12-18T01:26:36;65.9;;;29.5;;
52342;SDS011;38277;51.972;4.624;2022-12-18T01:30:10;67.6;;;30.3;;
52342;SDS011;38277;51.972;4.624;2022-12-18T01:39:11;66.8;;;30.5;;
52342;SDS011;38277;51.972;4.624;2022-12-18T01:44:59;56.1;;;27.7;;
52342;SDS011;38277;51.972;4.624;2022-12-18T01:48:17;60.1;;;27.8;;
52342;SDS011;38277;51.972;4.624;2022-12-18T01:57:10;54.7;;;24.5;;
52342;SDS011;38277;51.972;4.624;2022-12-18T02:02:26;59.9;;;27.0;;
52342;SDS011;38277;51.972;4.624;2022-12-18T02:06:18;55.4;;;26.4;;
52342;SDS011;38277;51.972;4.624;2022-12-18T02:15:24;53.0;;;24.6;;
52342;SDS011;38277;51.972;4.624;2022-12-18T02:25:13;56.0;;;26.0;;
52342;SDS011;38277;51.972;4.624;2022-12-18T02:33:27;52.1;;;23.7;;
52342;SDS011;38277;51.972;4.624;2022-12-18T02:38:47;51.2;;;23.2;;
52342;SDS011;38277;51.972;4.624;2022-12-18T02:42:32;59.7;;;23.3;;
52342;SDS011;38277;51.972;4.624;2022-12-18T02:51:49;71.1;;;26.2;;
52342;SDS011;38277;51.972;4.624;2022-12-18T02:57:05;56.4;;;25.0;;
52342;SDS011;38277;51.972;4.624;2022-12-18T03:00:08;65.0;;;26.7;;
52342;SDS011;38277;51.972;4.624;2022-12-18T03:09:37;60.3;;;25.9;;
52342;SDS011;38277;51.972;4.624;2022-12-18T03:14:35;57.2;;;26.5;;
52342;SDS011;38277;51.972;4.624;2022-12-18T03:18:20;62.6;;;25.6;;
52342;SDS011;38277;51.972;4.624;2022-12-18T03:27:12;54.3;;;26.1;;
52342;SDS011;38277;51.972;4.624;2022-12-18T03:32:46;60.1;;;27.5;;
52342;SDS011;38277;51.972;4.624;2022-12-18T03:36:14;61.9;;;27.1;;
52342;SDS011;38277;51.972;4.624;2022-12-18T03:45:52;52.8;;;25.8;;
52342;SDS011;38277;51.972;4.624;2022-12-18T03:49:53;50.3;;;23.9;;
52342;SDS011;38277;51.972;4.624;2022-12-18T03:54:22;55.1;;;25.7;;
52342;SDS011;38277;51.972;4.624;2022-12-18T03:58:43;48.7;;;23.7;;
52342;SDS011;38277;51.972;4.624;2022-12-18T04:04:08;49.0;;;22.5;;
52342;SDS011;38277;51.972;4.624;2022-12-18T04:07:37;52.0;;;23.7;;
52342;SDS011;38277;51.972;4.624;2022-12-18T04:12:19;49.1;;;22.9;;
52342;SDS011;38277;51.972;4.624;2022-12-18T04:16:58;45.6;;;23.1;;
52342;SDS011;38277;51.972;4.624;2022-12-18T04:22:00;46.7;;;22.3;;
52342;SDS011;38277;51.972;4.624;2022-12-18T04:25:59;43.1;;;21.7;;
52342;SDS011;38277;51.972;4.624;2022-12-18T04:30:10;44.8;;;21.5;;
52342;SDS011;38277;51.972;4.624;2022-12-18T04:40:06;41.0;;;18.8;;
52342;SDS011;38277;51.972;4.624;2022-12-18T04:43:52;46.9;;;22.9;;
52342;SDS011;38277;51.972;4.624;2022-12-18T04:48:12;45.4;;;21.3;;
52342;SDS011;38277;51.972;4.624;2022-12-18T04:58:19;43.0;;;20.5;;
52342;SDS011;38277;51.972;4.624;2022-12-18T05:01:39;44.4;;;20.4;;
52342;SDS011;38277;51.972;4.624;2022-12-18T05:06:20;41.8;;;19.1;;
52342;SDS011;38277;51.972;4.624;2022-12-18T05:15:52;41.2;;;20.4;;
52342;SDS011;38277;51.972;4.624;2022-12-18T05:19:53;36.8;;;18.2;;
52342;SDS011;38277;51.972;4.624;2022-12-18T05:24:13;39.1;;;20.5;;
52342;SDS011;38277;51.972;4.624;2022-12-18T05:33:52;43.5;;;20.1;;
52342;SDS011;38277;51.972;4.624;2022-12-18T05:37:50;46.4;;;21.1;;
52342;SDS011;38277;51.972;4.624;2022-12-18T05:42:21;43.6;;;20.5;;
52342;SDS011;38277;51.972;4.624;2022-12-18T05:46:58;44.3;;;20.7;;
52342;SDS011;38277;51.972;4.624;2022-12-18T05:52:17;54.6;;;25.5;;
52342;SDS011;38277;51.972;4.624;2022-12-18T05:55:59;51.4;;;24.2;;
52342;SDS011;38277;51.972;4.624;2022-12-18T06:00:15;58.8;;;26.1;;
52342;SDS011;38277;51.972;4.624;2022-12-18T06:09:54;54.1;;;24.8;;
52342;SDS011;38277;51.972;4.624;2022-12-18T06:13:56;50.2;;;24.5;;
52342;SDS011;38277;51.972;4.624;2022-12-18T06:18:15;51.2;;;24.0;;
52342;SDS011;38277;51.972;4.624;2022-12-18T06:28:07;44.9;;;21.3;;
52342;SDS011;38277;51.972;4.624;2022-12-18T06:32:03;53.8;;;24.7;;
52342;SDS011;38277;51.972;4.624;2022-12-18T06:36:21;51.1;;;22.8;;
52342;SDS011;38277;51.972;4.624;2022-12-18T06:49:51;42.4;;;18.8;;
52342;SDS011;38277;51.972;4.624;2022-12-18T06:54:13;43.4;;;21.3;;
52342;SDS011;38277;51.972;4.624;2022-12-18T07:08:03;42.1;;;19.3;;
52342;SDS011;38277;51.972;4.624;2022-12-18T07:12:19;36.3;;;19.5;;
52342;SDS011;38277;51.972;4.624;2022-12-18T07:21:56;31.7;;;17.2;;
52342;SDS011;38277;51.972;4.624;2022-12-18T07:26:05;35.5;;;16.3;;
52342;SDS011;38277;51.972;4.624;2022-12-18T07:30:12;35.5;;;17.0;;
52342;SDS011;38277;51.972;4.624;2022-12-18T07:39:56;35.0;;;17.9;;
52342;SDS011;38277;51.972;4.624;2022-12-18T07:43:51;35.4;;;17.5;;
52342;SDS011;38277;51.972;4.624;2022-12-18T07:48:19;40.3;;;18.8;;
52342;SDS011;38277;51.972;4.624;2022-12-18T07:58:16;34.3;;;17.0;;
52342;SDS011;38277;51.972;4.624;2022-12-18T08:01:45;37.8;;;16.5;;
52342;SDS011;38277;51.972;4.624;2022-12-18T08:06:24;31.7;;;16.1;;
52342;SDS011;38277;51.972;4.624;2022-12-18T08:16:16;34.7;;;16.2;;
52342;SDS011;38277;51.972;4.624;2022-12-18T08:19:42;34.2;;;17.7;;
52342;SDS011;38277;51.972;4.624;2022-12-18T08:24:06;31.7;;;15.4;;
52342;SDS011;38277;51.972;4.624;2022-12-18T08:33:54;32.4;;;14.8;;
52342;SDS011;38277;51.972;4.624;2022-12-18T08:37:55;34.1;;;16.9;;
52342;SDS011;38277;51.972;4.624;2022-12-18T08:42:25;31.1;;;16.0;;
52342;SDS011;38277;51.972;4.624;2022-12-18T08:55:39;33.0;;;14.9;;
52342;SDS011;38277;51.972;4.624;2022-12-18T09:00:29;30.7;;;15.3;;
52342;SDS011;38277;51.972;4.624;2022-12-18T09:14:00;27.6;;;14.2;;
52342;SDS011;38277;51.972;4.624;2022-12-18T09:18:27;31.4;;;14.2;;
52342;SDS011;38277;51.972;4.624;2022-12-18T09:28:04;30.8;;;14.6;;
52342;SDS011;38277;51.972;4.624;2022-12-18T09:31:48;32.0;;;16.9;;
52342;SDS011;38277;51.972;4.624;2022-12-18T09:36:09;29.9;;;15.8;;
52342;SDS011;38277;51.972;4.624;2022-12-18T09:46:08;30.1;;;15.8;;
52342;SDS011;38277;51.972;4.624;2022-12-18T09:49:40;31.4;;;15.7;;
52342;SDS011;38277;51.972;4.624;2022-12-18T09:54:11;26.3;;;13.9;;
52342;SDS011;38277;51.972;4.624;2022-12-18T10:04:00;29.9;;;14.8;;
52342;SDS011;38277;51.972;4.624;2022-12-18T10:08:05;27.9;;;14.5;;
52342;SDS011;38277;51.972;4.624;2022-12-18T10:12:32;29.6;;;14.8;;
52342;SDS011;38277;51.972;4.624;2022-12-18T10:17:14;30.8;;;15.5;;
52342;SDS011;38277;51.972;4.624;2022-12-18T10:22:17;28.9;;;14.1;;
52342;SDS011;38277;51.972;4.624;2022-12-18T10:26:06;29.3;;;14.0;;
52342;SDS011;38277;51.972;4.624;2022-12-18T10:30:24;30.6;;;14.8;;
52342;SDS011;38277;51.972;4.624;2022-12-18T10:40:15;28.4;;;13.7;;
52342;SDS011;38277;51.972;4.624;2022-12-18T10:43:45;26.7;;;13.9;;
52342;SDS011;38277;51.972;4.624;2022-12-18T10:48:22;32.0;;;13.7;;
52342;SDS011;38277;51.972;4.624;2022-12-18T10:57:52;27.4;;;14.2;;
52342;SDS011;38277;51.972;4.624;2022-12-18T11:02:45;27.9;;;14.4;;
52342;SDS011;38277;51.972;4.624;2022-12-18T11:06:15;31.5;;;16.3;;
52342;SDS011;38277;51.972;4.624;2022-12-18T11:15:15;25.6;;;13.7;;
52342;SDS011;38277;51.972;4.624;2022-12-18T11:20:35;25.4;;;15.2;;
52342;SDS011;38277;51.972;4.624;2022-12-18T11:24:15;29.2;;;15.2;;
52342;SDS011;38277;51.972;4.624;2022-12-18T11:33:21;28.1;;;14.7;;
52342;SDS011;38277;51.972;4.624;2022-12-18T11:38:33;28.8;;;14.1;;
52342;SDS011;38277;51.972;4.624;2022-12-18T11:42:22;26.2;;;13.4;;
52342;SDS011;38277;51.972;4.624;2022-12-18T11:51:41;26.7;;;15.3;;
52342;SDS011;38277;51.972;4.624;2022-12-18T11:56:58;28.3;;;15.5;;
52342;SDS011;38277;51.972;4.624;2022-12-18T12:00:29;30.4;;;15.2;;
52342;SDS011;38277;51.972;4.624;2022-12-18T12:10:54;28.5;;;15.4;;
52342;SDS011;38277;51.972;4.624;2022-12-18T12:16:29;25.9;;;13.8;;
52342;SDS011;38277;51.972;4.624;2022-12-18T12:20:59;28.4;;;14.4;;
52342;SDS011;38277;51.972;4.624;2022-12-18T12:30:51;28.2;;;15.1;;
52342;SDS011;38277;51.972;4.624;2022-12-18T12:36:30;25.4;;;13.2;;
52342;SDS011;38277;51.972;4.624;2022-12-18T12:39:32;26.8;;;14.7;;
52342;SDS011;38277;51.972;4.624;2022-12-18T12:45:40;28.9;;;15.4;;
52342;SDS011;38277;51.972;4.624;2022-12-18T12:50:45;30.0;;;16.4;;
52342;SDS011;38277;51.972;4.624;2022-12-18T12:54:11;24.9;;;14.2;;
52342;SDS011;38277;51.972;4.624;2022-12-18T13:03:46;27.6;;;14.7;;
52342;SDS011;38277;51.972;4.624;2022-12-18T13:08:57;30.8;;;15.8;;
52342;SDS011;38277;51.972;4.624;2022-12-18T13:12:13;28.6;;;16.8;;
52342;SDS011;38277;51.972;4.624;2022-12-18T13:21:21;30.1;;;15.4;;
52342;SDS011;38277;51.972;4.624;2022-12-18T13:26:32;30.7;;;15.7;;
52342;SDS011;38277;51.972;4.624;2022-12-18T13:39:33;32.2;;;17.6;;
52342;SDS011;38277;51.972;4.624;2022-12-18T13:44:48;29.1;;;14.9;;
52342;SDS011;38277;51.972;4.624;2022-12-18T13:48:32;26.3;;;14.9;;
52342;SDS011;38277;51.972;4.624;2022-12-18T13:53:49;28.4;;;15.5;;
52342;SDS011;38277;51.972;4.624;2022-12-18T13:57:25;29.5;;;14.8;;
52342;SDS011;38277;51.972;4.624;2022-12-18T14:02:45;30.6;;;16.3;;
52342;SDS011;38277;51.972;4.624;2022-12-18T14:06:14;32.6;;;17.1;;
52342;SDS011;38277;51.972;4.624;2022-12-18T14:15:29;28.7;;;16.1;;
52342;SDS011;38277;51.972;4.624;2022-12-18T14:24:16;27.0;;;14.8;;
52342;SDS011;38277;51.972;4.624;2022-12-18T14:33:31;32.7;;;17.7;;
52342;SDS011;38277;51.972;4.624;2022-12-18T14:38:42;31.8;;;17.2;;
52342;SDS011;38277;51.972;4.624;2022-12-18T14:42:26;29.2;;;16.8;;
52342;SDS011;38277;51.972;4.624;2022-12-18T14:46:47;26.6;;;14.8;;
52342;SDS011;38277;51.972;4.624;2022-12-18T14:52:13;29.4;;;17.3;;
52342;SDS011;38277;51.972;4.624;2022-12-18T14:56:21;32.8;;;16.4;;
52342;SDS011;38277;51.972;4.624;2022-12-18T15:00:15;31.3;;;16.5;;
52342;SDS011;38277;51.972;4.624;2022-12-18T15:09:20;33.4;;;17.8;;
52342;SDS011;38277;51.972;4.624;2022-12-18T15:14:41;32.3;;;17.2;;
52342;SDS011;38277;51.972;4.624;2022-12-18T15:18:13;29.6;;;16.4;;
52342;SDS011;38277;51.972;4.624;2022-12-18T15:27:30;33.0;;;17.5;;
52342;SDS011;38277;51.972;4.624;2022-12-18T15:32:32;32.5;;;17.0;;
52342;SDS011;38277;51.972;4.624;2022-12-18T15:36:19;31.2;;;17.8;;
52342;SDS011;38277;51.972;4.624;2022-12-18T15:45:25;29.4;;;15.6;;
52342;SDS011;38277;51.972;4.624;2022-12-18T15:50:29;30.3;;;16.4;;
52342;SDS011;38277;51.972;4.624;2022-12-18T15:54:20;32.7;;;16.9;;
52342;SDS011;38277;51.972;4.624;2022-12-18T16:03:28;29.5;;;15.9;;
52342;SDS011;38277;51.972;4.624;2022-12-18T16:08:42;31.2;;;16.2;;
52342;SDS011;38277;51.972;4.624;2022-12-18T16:12:14;28.7;;;16.4;;
52342;SDS011;38277;51.972;4.624;2022-12-18T16:25:40;31.2;;;17.2;;
52342;SDS011;38277;51.972;4.624;2022-12-18T16:40:11;31.0;;;16.5;;
52342;SDS011;38277;51.972;4.624;2022-12-18T16:43:56;31.0;;;17.1;;
52342;SDS011;38277;51.972;4.624;2022-12-18T16:48:12;31.2;;;16.6;;
52342;SDS011;38277;51.972;4.624;2022-12-18T16:52:44;35.0;;;17.2;;
52342;SDS011;38277;51.972;4.624;2022-12-18T16:58:11;29.3;;;15.3;;
52342;SDS011;38277;51.972;4.624;2022-12-18T17:01:49;33.4;;;17.2;;
52342;SDS011;38277;51.972;4.624;2022-12-18T17:06:13;30.5;;;15.9;;
52342;SDS011;38277;51.972;4.624;2022-12-18T17:11:03;31.0;;;16.1;;
52342;SDS011;38277;51.972;4.624;2022-12-18T17:15:52;32.3;;;17.2;;
52342;SDS011;38277;51.972;4.624;2022-12-18T17:19:36;30.4;;;16.9;;
52342;SDS011;38277;51.972;4.624;2022-12-18T17:24:23;32.0;;;16.8;;
52342;SDS011;38277;51.972;4.624;2022-12-18T17:28:57;28.8;;;16.3;;
52342;SDS011;38277;51.972;4.624;2022-12-18T17:34:18;31.4;;;16.8;;
52342;SDS011;38277;51.972;4.624;2022-12-18T17:37:46;32.1;;;17.3;;
52342;SDS011;38277;51.972;4.624;2022-12-18T17:42:16;29.8;;;15.9;;
52342;SDS011;38277;51.972;4.624;2022-12-18T17:51:52;32.1;;;17.2;;
52342;SDS011;38277;51.972;4.624;2022-12-18T17:55:52;31.9;;;16.6;;
52342;SDS011;38277;51.972;4.624;2022-12-18T18:00:25;33.0;;;18.1;;
52342;SDS011;38277;51.972;4.624;2022-12-18T18:04:56;32.9;;;18.1;;
52342;SDS011;38277;51.972;4.624;2022-12-18T18:10:18;34.0;;;18.6;;
52342;SDS011;38277;51.972;4.624;2022-12-18T18:13:45;36.5;;;18.8;;
52342;SDS011;38277;51.972;4.624;2022-12-18T18:18:07;33.5;;;17.2;;
52342;SDS011;38277;51.972;4.624;2022-12-18T18:22:43;32.8;;;17.7;;
52342;SDS011;38277;51.972;4.624;2022-12-18T18:27:27;31.5;;;17.4;;
52342;SDS011;38277;51.972;4.624;2022-12-18T18:32:04;34.9;;;18.8;;
52342;SDS011;38277;51.972;4.624;2022-12-18T18:36:08;36.9;;;19.8;;
52342;SDS011;38277;51.972;4.624;2022-12-18T18:40:56;34.3;;;19.6;;
52342;SDS011;38277;51.972;4.624;2022-12-18T18:45:15;37.0;;;20.5;;
52342;SDS011;38277;51.972;4.624;2022-12-18T18:49:46;34.4;;;19.5;;
52342;SDS011;38277;51.972;4.624;2022-12-18T18:55:17;36.8;;;19.2;;
52342;SDS011;38277;51.972;4.624;2022-12-18T18:59:01;36.3;;;20.1;;
52342;SDS011;38277;51.972;4.624;2022-12-18T19:04:06;38.6;;;20.5;;
52342;SDS011;38277;51.972;4.624;2022-12-18T19:07:51;40.1;;;21.3;;
52342;SDS011;38277;51.972;4.624;2022-12-18T19:12:10;36.3;;;20.4;;
52342;SDS011;38277;51.972;4.624;2022-12-18T19:16:46;38.8;;;20.4;;
52342;SDS011;38277;51.972;4.624;2022-12-18T19:25:51;38.5;;;22.4;;
52342;SDS011;38277;51.972;4.624;2022-12-18T19:31:01;41.6;;;22.8;;
52342;SDS011;38277;51.972;4.624;2022-12-18T19:34:44;38.2;;;20.6;;
52342;SDS011;38277;51.972;4.624;2022-12-18T19:39:08;39.8;;;22.5;;
52342;SDS011;38277;51.972;4.624;2022-12-18T19:43:36;40.6;;;21.9;;
52342;SDS011;38277;51.972;4.624;2022-12-18T19:48:13;40.2;;;21.4;;
52342;SDS011;38277;51.972;4.624;2022-12-18T19:52:37;39.0;;;20.1;;
52342;SDS011;38277;51.972;4.624;2022-12-18T19:58:03;40.1;;;23.4;;
52342;SDS011;38277;51.972;4.624;2022-12-18T20:02:25;39.0;;;22.3;;
52342;SDS011;38277;51.972;4.624;2022-12-18T20:06:57;40.0;;;21.4;;
52342;SDS011;38277;51.972;4.624;2022-12-18T20:11:03;37.1;;;21.5;;
52342;SDS011;38277;51.972;4.624;2022-12-18T20:15:20;38.6;;;19.9;;
52342;SDS011;38277;51.972;4.624;2022-12-18T20:20:04;39.7;;;21.5;;
52342;SDS011;38277;51.972;4.624;2022-12-18T20:24:26;37.8;;;21.2;;
52342;SDS011;38277;51.972;4.624;2022-12-18T20:28:44;40.5;;;21.3;;
52342;SDS011;38277;51.972;4.624;2022-12-18T20:33:34;41.2;;;22.5;;
52342;SDS011;38277;51.972;4.624;2022-12-18T20:38:26;39.4;;;21.4;;
52342;SDS011;38277;51.972;4.624;2022-12-18T20:43:16;38.7;;;21.1;;
52342;SDS011;38277;51.972;4.624;2022-12-18T20:46:51;38.7;;;22.8;;
52342;SDS011;38277;51.972;4.624;2022-12-18T20:51:25;42.0;;;20.8;;
52342;SDS011;38277;51.972;4.624;2022-12-18T20:56:05;39.3;;;21.3;;
52342;SDS011;38277;51.972;4.624;2022-12-18T21:00:38;40.4;;;21.6;;
52342;SDS011;38277;51.972;4.624;2022-12-18T21:04:41;39.3;;;21.6;;
52342;SDS011;38277;51.972;4.624;2022-12-18T21:09:28;42.5;;;22.6;;
52342;SDS011;38277;51.972;4.624;2022-12-18T21:13:42;41.3;;;22.7;;
52342;SDS011;38277;51.972;4.624;2022-12-18T21:18:55;42.5;;;23.8;;
52342;SDS011;38277;51.972;4.624;2022-12-18T21:22:47;42.3;;;23.4;;
52342;SDS011;38277;51.972;4.624;2022-12-18T21:28:06;42.5;;;22.8;;
52342;SDS011;38277;51.972;4.624;2022-12-18T21:36:34;41.8;;;23.3;;
52342;SDS011;38277;51.972;4.624;2022-12-18T21:40:56;40.3;;;21.2;;
52342;SDS011;38277;51.972;4.624;2022-12-18T21:45:11;46.1;;;24.0;;
52342;SDS011;38277;51.972;4.624;2022-12-18T21:49:54;48.3;;;23.5;;
52342;SDS011;38277;51.972;4.624;2022-12-18T21:55:12;40.7;;;22.7;;
52342;SDS011;38277;51.972;4.624;2022-12-18T21:58:50;43.0;;;23.3;;
52342;SDS011;38277;51.972;4.624;2022-12-18T22:03:31;43.2;;;22.4;;
52342;SDS011;38277;51.972;4.624;2022-12-18T22:08:31;42.4;;;23.5;;
52342;SDS011;38277;51.972;4.624;2022-12-18T22:13:14;41.2;;;23.4;;
52342;SDS011;38277;51.972;4.624;2022-12-18T22:16:44;42.1;;;22.4;;
52342;SDS011;38277;51.972;4.624;2022-12-18T22:21:22;42.5;;;22.6;;
52342;SDS011;38277;51.972;4.624;2022-12-18T22:26:50;41.6;;;23.2;;
52342;SDS011;38277;51.972;4.624;2022-12-18T22:34:59;42.2;;;23.0;;
52342;SDS011;38277;51.972;4.624;2022-12-18T22:39:08;40.3;;;22.3;;
52342;SDS011;38277;51.972;4.624;2022-12-18T22:43:48;41.4;;;22.7;;
52342;SDS011;38277;51.972;4.624;2022-12-18T22:48:21;43.5;;;23.7;;
52342;SDS011;38277;51.972;4.624;2022-12-18T22:52:38;44.4;;;22.8;;
52342;SDS011;38277;51.972;4.624;2022-12-18T22:57:30;44.7;;;22.4;;
52342;SDS011;38277;51.972;4.624;2022-12-18T23:01:38;54.8;;;24.0;;
52342;SDS011;38277;51.972;4.624;2022-12-18T23:10:59;41.1;;;22.1;;
52342;SDS011;38277;51.972;4.624;2022-12-18T23:21:45;42.9;;;21.9;;
52342;SDS011;38277;51.972;4.624;2022-12-18T23:33:08;44.3;;;22.4;;
52342;SDS011;38277;51.972;4.624;2022-12-18T23:37:51;41.2;;;22.6;;
52342;SDS011;38277;51.972;4.624;2022-12-18T23:42:13;38.8;;;21.4;;
52342;SDS011;38277;51.972;4.624;2022-12-18T23:46:35;39.1;;;19.9;;
52342;SDS011;38277;51.972;4.624;2022-12-18T23:52:06;42.7;;;21.1;;
